sensor_id;sensor_type;location;lat;lon;timestamp;temperature;humidity
12043;DHT22;6082;49.306;12.862;2024-01-15T12:17:09;-0.70;99.90
12043;DHT22;6082;49.306;12.862;2024-01-15T12:19:36;-0.60;99.90
12043;DHT22;6082;49.306;12.862;2024-01-15T12:22:02;-0.60;99.90
12043;DHT22;6082;49.306;12.862;2024-01-15T12:24:28;-0.60;99.90
12043;DHT22;6082;49.306;12.862;2024-01-15T12:26:54;-0.60;99.90
12043;DHT22;6082;49.306;12.862;2024-01-15T12:29:20;-0.60;99.90
12043;DHT22;6082;49.306;12.862;2024-01-15T12:31:50;-0.60;99.90
12043;DHT22;6082;49.306;12.862;2024-01-15T12:34:17;-0.60;99.90
12043;DHT22;6082;49.306;12.862;2024-01-15T12:36:43;-0.50;99.90
12043;DHT22;6082;49.306;12.862;2024-01-15T12:39:12;-0.50;99.90
12043;DHT22;6082;49.306;12.862;2024-01-15T12:41:38;-0.50;99.90
12043;DHT22;6082;49.306;12.862;2024-01-15T12:44:04;-0.50;99.90
12043;DHT22;6082;49.306;12.862;2024-01-15T12:46:30;-0.50;99.90
12043;DHT22;6082;49.306;12.862;2024-01-15T12:48:57;-0.60;99.90
12043;DHT22;6082;49.306;12.862;2024-01-15T12:51:26;-0.60;99.90
12043;DHT22;6082;49.306;12.862;2024-01-15T12:53:53;-0.60;99.90
12043;DHT22;6082;49.306;12.862;2024-01-15T12:56:19;-0.60;99.90
12043;DHT22;6082;49.306;12.862;2024-01-15T12:58:45;-0.60;99.90
12043;DHT22;6082;49.306;12.862;2024-01-15T13:01:10;-0.60;99.90
12043;DHT22;6082;49.306;12.862;2024-01-15T13:03:37;-0.50;99.90
12043;DHT22;6082;49.306;12.862;2024-01-15T13:06:03;-0.50;99.90
12043;DHT22;6082;49.306;12.862;2024-01-15T13:08:29;-0.40;99.90
12043;DHT22;6082;49.306;12.862;2024-01-15T13:10:55;-0.50;99.90
12043;DHT22;6082;49.306;12.862;2024-01-15T13:13:23;-0.50;99.90
12043;DHT22;6082;49.306;12.862;2024-01-15T13:15:48;-0.50;99.90
12043;DHT22;6082;49.306;12.862;2024-01-15T13:18:14;-0.50;99.90
12043;DHT22;6082;49.306;12.862;2024-01-15T13:20:41;-0.50;99.90
12043;DHT22;6082;49.306;12.862;2024-01-15T13:23:06;-0.50;99.90
12043;DHT22;6082;49.306;12.862;2024-01-15T13:25:32;-0.50;99.90
12043;DHT22;6082;49.306;12.862;2024-01-15T13:28:01;-0.50;99.90
12043;DHT22;6082;49.306;12.862;2024-01-15T13:30:28;-0.50;99.90
12043;DHT22;6082;49.306;12.862;2024-01-15T13:32:53;-0.60;99.90
12043;DHT22;6082;49.306;12.862;2024-01-15T13:35:22;-0.60;99.90
12043;DHT22;6082;49.306;12.862;2024-01-15T13:37:47;-0.60;99.90
12043;DHT22;6082;49.306;12.862;2024-01-15T13:40:13;-0.60;99.90
12043;DHT22;6082;49.306;12.862;2024-01-15T13:42:45;-0.50;99.90
12043;DHT22;6082;49.306;12.862;2024-01-15T13:45:11;-0.50;99.90
12043;DHT22;6082;49.306;12.862;2024-01-15T13:47:40;-0.50;99.90
12043;DHT22;6082;49.306;12.862;2024-01-15T13:50:07;-0.60;99.90
12043;DHT22;6082;49.306;12.862;2024-01-15T13:52:33;-0.60;99.90
12043;DHT22;6082;49.306;12.862;2024-01-15T13:54:58;-0.60;99.90
12043;DHT22;6082;49.306;12.862;2024-01-15T13:57:24;-0.60;99.90
12043;DHT22;6082;49.306;12.862;2024-01-15T13:59:50;-0.60;99.90
12043;DHT22;6082;49.306;12.862;2024-01-15T14:02:15;-0.60;99.90
12043;DHT22;6082;49.306;12.862;2024-01-15T14:04:41;-0.60;99.90
12043;DHT22;6082;49.306;12.862;2024-01-15T14:07:07;-0.60;99.90
12043;DHT22;6082;49.306;12.862;2024-01-15T14:09:33;-0.60;99.90
12043;DHT22;6082;49.306;12.862;2024-01-15T14:11:59;-0.60;99.90
12043;DHT22;6082;49.306;12.862;2024-01-15T14:14:25;-0.60;99.90
12043;DHT22;6082;49.306;12.862;2024-01-15T14:16:51;-0.60;99.90
12043;DHT22;6082;49.306;12.862;2024-01-15T14:19:17;-0.70;99.90
12043;DHT22;6082;49.306;12.862;2024-01-15T14:21:43;-0.70;99.90
12043;DHT22;6082;49.306;12.862;2024-01-15T14:24:09;-0.70;99.90
12043;DHT22;6082;49.306;12.862;2024-01-15T14:26:35;-0.70;99.90
12043;DHT22;6082;49.306;12.862;2024-01-15T14:29:00;-0.60;99.90
12043;DHT22;6082;49.306;12.862;2024-01-15T14:31:26;-0.60;99.90
12043;DHT22;6082;49.306;12.862;2024-01-15T14:33:53;-0.60;99.90
12043;DHT22;6082;49.306;12.862;2024-01-15T14:36:20;-0.60;99.90
12043;DHT22;6082;49.306;12.862;2024-01-15T14:38:46;-0.60;99.90
12043;DHT22;6082;49.306;12.862;2024-01-15T14:41:12;-0.60;99.90
12043;DHT22;6082;49.306;12.862;2024-01-15T14:43:38;-0.60;99.90
12043;DHT22;6082;49.306;12.862;2024-01-15T14:46:04;-0.60;99.90
12043;DHT22;6082;49.306;12.862;2024-01-15T14:48:31;-0.60;99.90
12043;DHT22;6082;49.306;12.862;2024-01-15T14:50:56;-0.60;99.90
12043;DHT22;6082;49.306;12.862;2024-01-15T14:53:22;-0.60;99.90
12043;DHT22;6082;49.306;12.862;2024-01-15T14:55:48;-0.60;99.90
12043;DHT22;6082;49.306;12.862;2024-01-15T14:58:14;-0.60;99.90
12043;DHT22;6082;49.306;12.862;2024-01-15T15:00:40;-0.60;99.90
12043;DHT22;6082;49.306;12.862;2024-01-15T15:03:06;-0.60;99.90
12043;DHT22;6082;49.306;12.862;2024-01-15T15:05:32;-0.70;99.90
12043;DHT22;6082;49.306;12.862;2024-01-15T15:07:57;-0.70;99.90
12043;DHT22;6082;49.306;12.862;2024-01-15T15:10:23;-0.70;99.90
12043;DHT22;6082;49.306;12.862;2024-01-15T15:12:49;-0.70;99.90
12043;DHT22;6082;49.306;12.862;2024-01-15T15:15:15;-0.70;99.90
12043;DHT22;6082;49.306;12.862;2024-01-15T15:17:42;-0.70;99.90
12043;DHT22;6082;49.306;12.862;2024-01-15T15:20:08;-0.70;99.90
12043;DHT22;6082;49.306;12.862;2024-01-15T15:22:34;-0.70;99.90
12043;DHT22;6082;49.306;12.862;2024-01-15T15:25:00;-0.70;99.90
12043;DHT22;6082;49.306;12.862;2024-01-15T15:27:26;-0.70;99.90
12043;DHT22;6082;49.306;12.862;2024-01-15T15:29:53;-0.70;99.90
12043;DHT22;6082;49.306;12.862;2024-01-15T15:32:19;-0.70;99.90
12043;DHT22;6082;49.306;12.862;2024-01-15T15:34:45;-0.70;99.90
12043;DHT22;6082;49.306;12.862;2024-01-15T15:37:11;-0.80;99.90
12043;DHT22;6082;49.306;12.862;2024-01-15T15:39:37;-0.80;99.90
12043;DHT22;6082;49.306;12.862;2024-01-15T15:42:03;-0.80;99.90
12043;DHT22;6082;49.306;12.862;2024-01-15T15:44:29;-0.80;99.90
12043;DHT22;6082;49.306;12.862;2024-01-15T15:46:58;-0.80;99.90
12043;DHT22;6082;49.306;12.862;2024-01-15T15:49:24;-0.90;99.90
12043;DHT22;6082;49.306;12.862;2024-01-15T15:51:50;-0.90;99.90
12043;DHT22;6082;49.306;12.862;2024-01-15T15:54:16;-0.90;99.90
12043;DHT22;6082;49.306;12.862;2024-01-15T15:56:42;-0.90;99.90
12043;DHT22;6082;49.306;12.862;2024-01-15T15:59:13;-0.90;99.90
12043;DHT22;6082;49.306;12.862;2024-01-15T16:01:38;-0.90;99.90
12043;DHT22;6082;49.306;12.862;2024-01-15T16:04:04;-0.90;99.90
12043;DHT22;6082;49.306;12.862;2024-01-15T16:06:30;-0.90;99.90
12043;DHT22;6082;49.306;12.862;2024-01-15T16:08:56;-0.90;99.90
12043;DHT22;6082;49.306;12.862;2024-01-15T16:11:22;-0.90;99.90
12043;DHT22;6082;49.306;12.862;2024-01-15T16:13:48;-1.00;99.90
12043;DHT22;6082;49.306;12.862;2024-01-15T16:16:14;-0.90;99.90
12043;DHT22;6082;49.306;12.862;2024-01-15T16:18:40;-1.00;99.90
12043;DHT22;6082;49.306;12.862;2024-01-15T16:21:05;-1.00;99.90
12043;DHT22;6082;49.306;12.862;2024-01-15T16:23:31;-1.00;99.90
12043;DHT22;6082;49.306;12.862;2024-01-15T16:25:57;-1.00;99.90
12043;DHT22;6082;49.306;12.862;2024-01-15T16:28:23;-1.00;99.90
12043;DHT22;6082;49.306;12.862;2024-01-15T16:30:49;-1.00;99.90
12043;DHT22;6082;49.306;12.862;2024-01-15T16:33:14;-1.00;99.90
12043;DHT22;6082;49.306;12.862;2024-01-15T16:35:40;-1.00;99.90
12043;DHT22;6082;49.306;12.862;2024-01-15T16:38:06;-1.00;99.90
12043;DHT22;6082;49.306;12.862;2024-01-15T16:40:32;-1.00;99.90
12043;DHT22;6082;49.306;12.862;2024-01-15T16:42:57;-0.90;99.90
12043;DHT22;6082;49.306;12.862;2024-01-15T16:45:23;-0.90;99.90
12043;DHT22;6082;49.306;12.862;2024-01-15T16:47:49;-0.90;99.90
12043;DHT22;6082;49.306;12.862;2024-01-15T16:50:15;-0.90;99.90
12043;DHT22;6082;49.306;12.862;2024-01-15T16:52:41;-0.90;99.90
12043;DHT22;6082;49.306;12.862;2024-01-15T16:55:07;-0.90;99.90
12043;DHT22;6082;49.306;12.862;2024-01-15T16:57:33;-1.00;99.90
12043;DHT22;6082;49.306;12.862;2024-01-15T17:00:02;-1.00;99.90
12043;DHT22;6082;49.306;12.862;2024-01-15T17:02:28;-1.00;99.90
12043;DHT22;6082;49.306;12.862;2024-01-15T17:04:54;-0.90;99.90
12043;DHT22;6082;49.306;12.862;2024-01-15T17:07:23;-1.00;99.90
12043;DHT22;6082;49.306;12.862;2024-01-15T17:09:48;-1.00;99.90
12043;DHT22;6082;49.306;12.862;2024-01-15T17:12:14;-1.00;99.90
12043;DHT22;6082;49.306;12.862;2024-01-15T17:14:40;-1.00;99.90
12043;DHT22;6082;49.306;12.862;2024-01-15T17:17:05;-1.00;99.90
12043;DHT22;6082;49.306;12.862;2024-01-15T17:19:31;-1.00;99.90
12043;DHT22;6082;49.306;12.862;2024-01-15T17:21:57;-1.00;99.90
12043;DHT22;6082;49.306;12.862;2024-01-15T17:24:23;-1.00;99.90
12043;DHT22;6082;49.306;12.862;2024-01-15T17:26:51;-1.00;99.90
12043;DHT22;6082;49.306;12.862;2024-01-15T17:29:18;-1.00;99.90
12043;DHT22;6082;49.306;12.862;2024-01-15T17:31:46;-1.10;99.90
12043;DHT22;6082;49.306;12.862;2024-01-15T17:34:12;-1.10;99.90
12043;DHT22;6082;49.306;12.862;2024-01-15T17:36:37;-1.10;99.90
12043;DHT22;6082;49.306;12.862;2024-01-15T17:39:04;-1.10;99.90
12043;DHT22;6082;49.306;12.862;2024-01-15T17:41:32;-1.10;99.90
12043;DHT22;6082;49.306;12.862;2024-01-15T17:43:58;-1.10;99.90
12043;DHT22;6082;49.306;12.862;2024-01-15T17:46:24;-1.20;99.90
12043;DHT22;6082;49.306;12.862;2024-01-15T17:48:50;-1.20;99.90
12043;DHT22;6082;49.306;12.862;2024-01-15T17:51:17;-1.20;99.90
12043;DHT22;6082;49.306;12.862;2024-01-15T17:53:43;-1.20;99.90
12043;DHT22;6082;49.306;12.862;2024-01-15T17:56:09;-1.20;99.90
12043;DHT22;6082;49.306;12.862;2024-01-15T17:58:35;-1.20;99.90
12043;DHT22;6082;49.306;12.862;2024-01-15T18:01:01;-1.20;99.90
12043;DHT22;6082;49.306;12.862;2024-01-15T18:03:27;-1.20;99.90
12043;DHT22;6082;49.306;12.862;2024-01-15T18:05:54;-1.20;99.90
12043;DHT22;6082;49.306;12.862;2024-01-15T18:08:20;-1.30;99.90
12043;DHT22;6082;49.306;12.862;2024-01-15T18:10:46;-1.30;99.90
12043;DHT22;6082;49.306;12.862;2024-01-15T18:13:11;-1.30;99.90
12043;DHT22;6082;49.306;12.862;2024-01-15T18:15:37;-1.30;99.90
12043;DHT22;6082;49.306;12.862;2024-01-15T18:18:03;-1.40;99.90
12043;DHT22;6082;49.306;12.862;2024-01-15T18:20:29;-1.40;99.90
12043;DHT22;6082;49.306;12.862;2024-01-15T18:22:55;-1.40;99.90
12043;DHT22;6082;49.306;12.862;2024-01-15T18:25:21;-1.40;99.90
12043;DHT22;6082;49.306;12.862;2024-01-15T18:27:47;-1.40;99.90
12043;DHT22;6082;49.306;12.862;2024-01-15T18:30:13;-1.40;99.90
12043;DHT22;6082;49.306;12.862;2024-01-15T18:32:39;-1.40;99.90
12043;DHT22;6082;49.306;12.862;2024-01-15T18:35:05;-1.30;99.90
12043;DHT22;6082;49.306;12.862;2024-01-15T18:37:31;-1.30;99.90
12043;DHT22;6082;49.306;12.862;2024-01-15T18:39:57;-1.30;99.90
12043;DHT22;6082;49.306;12.862;2024-01-15T18:42:23;-1.30;99.90
12043;DHT22;6082;49.306;12.862;2024-01-15T18:44:49;-1.30;99.90
12043;DHT22;6082;49.306;12.862;2024-01-15T18:47:15;-1.30;99.90
12043;DHT22;6082;49.306;12.862;2024-01-15T18:49:42;-1.30;99.90
12043;DHT22;6082;49.306;12.862;2024-01-15T18:52:09;-1.30;99.90
12043;DHT22;6082;49.306;12.862;2024-01-15T18:54:36;-1.30;99.90
12043;DHT22;6082;49.306;12.862;2024-01-15T18:57:04;-1.20;99.90
12043;DHT22;6082;49.306;12.862;2024-01-15T18:59:30;-1.20;99.90
12043;DHT22;6082;49.306;12.862;2024-01-15T19:01:58;-1.20;99.90
12043;DHT22;6082;49.306;12.862;2024-01-15T19:04:25;-1.20;99.90
12043;DHT22;6082;49.306;12.862;2024-01-15T19:06:51;-1.20;99.90
12043;DHT22;6082;49.306;12.862;2024-01-15T19:09:17;-1.20;99.90
12043;DHT22;6082;49.306;12.862;2024-01-15T19:11:42;-1.10;99.90
12043;DHT22;6082;49.306;12.862;2024-01-15T19:14:08;-1.10;99.90
12043;DHT22;6082;49.306;12.862;2024-01-15T19:16:34;-1.10;99.90
12043;DHT22;6082;49.306;12.862;2024-01-15T19:19:00;-1.10;99.90
12043;DHT22;6082;49.306;12.862;2024-01-15T19:21:26;-1.10;99.90
12043;DHT22;6082;49.306;12.862;2024-01-15T19:23:51;-1.00;99.90
12043;DHT22;6082;49.306;12.862;2024-01-15T19:26:21;-1.00;99.90
12043;DHT22;6082;49.306;12.862;2024-01-15T19:28:47;-1.10;99.90
12043;DHT22;6082;49.306;12.862;2024-01-15T19:31:13;-1.10;99.90
12043;DHT22;6082;49.306;12.862;2024-01-15T19:33:39;-1.10;99.90
12043;DHT22;6082;49.306;12.862;2024-01-15T19:36:05;-1.10;99.90
12043;DHT22;6082;49.306;12.862;2024-01-15T19:38:31;-1.20;99.90
12043;DHT22;6082;49.306;12.862;2024-01-15T19:40:57;-1.20;99.90
12043;DHT22;6082;49.306;12.862;2024-01-15T19:43:23;-1.20;99.90
12043;DHT22;6082;49.306;12.862;2024-01-15T19:45:49;-1.00;99.90
12043;DHT22;6082;49.306;12.862;2024-01-15T19:48:15;-1.20;99.90
12043;DHT22;6082;49.306;12.862;2024-01-15T19:50:43;-1.20;99.90
12043;DHT22;6082;49.306;12.862;2024-01-15T19:53:09;-1.20;99.90
12043;DHT22;6082;49.306;12.862;2024-01-15T19:55:35;-1.20;99.90
12043;DHT22;6082;49.306;12.862;2024-01-15T19:58:01;-1.20;99.90
12043;DHT22;6082;49.306;12.862;2024-01-15T20:00:27;-1.20;99.90
12043;DHT22;6082;49.306;12.862;2024-01-15T20:02:53;-1.20;99.90
12043;DHT22;6082;49.306;12.862;2024-01-15T20:05:19;-1.20;99.90
12043;DHT22;6082;49.306;12.862;2024-01-15T20:07:44;-1.20;99.90
12043;DHT22;6082;49.306;12.862;2024-01-15T20:10:10;-1.20;99.90
12043;DHT22;6082;49.306;12.862;2024-01-15T20:12:38;-1.20;99.90
12043;DHT22;6082;49.306;12.862;2024-01-15T20:15:04;-1.20;99.90
12043;DHT22;6082;49.306;12.862;2024-01-15T20:17:30;-1.20;99.90
12043;DHT22;6082;49.306;12.862;2024-01-15T20:19:56;-1.20;99.90
12043;DHT22;6082;49.306;12.862;2024-01-15T20:22:22;-1.20;99.90
12043;DHT22;6082;49.306;12.862;2024-01-15T20:24:48;-1.20;99.90
12043;DHT22;6082;49.306;12.862;2024-01-15T20:27:13;-1.20;99.90
12043;DHT22;6082;49.306;12.862;2024-01-15T20:29:41;-1.10;99.90
12043;DHT22;6082;49.306;12.862;2024-01-15T20:32:06;-1.10;99.90
12043;DHT22;6082;49.306;12.862;2024-01-15T20:34:32;-1.20;99.90
12043;DHT22;6082;49.306;12.862;2024-01-15T20:36:58;-1.20;99.90
12043;DHT22;6082;49.306;12.862;2024-01-15T20:39:24;-1.20;99.90
12043;DHT22;6082;49.306;12.862;2024-01-15T20:41:49;-1.10;99.90
12043;DHT22;6082;49.306;12.862;2024-01-15T20:44:15;-1.10;99.90
12043;DHT22;6082;49.306;12.862;2024-01-15T20:46:41;-1.20;99.90
12043;DHT22;6082;49.306;12.862;2024-01-15T20:49:06;-1.10;99.90
12043;DHT22;6082;49.306;12.862;2024-01-15T20:51:32;-1.10;99.90
12043;DHT22;6082;49.306;12.862;2024-01-15T20:53:58;-1.10;99.90
12043;DHT22;6082;49.306;12.862;2024-01-15T20:56:24;-1.10;99.90
12043;DHT22;6082;49.306;12.862;2024-01-15T20:58:50;-1.10;99.90
12043;DHT22;6082;49.306;12.862;2024-01-15T21:01:16;-1.10;99.90
12043;DHT22;6082;49.306;12.862;2024-01-15T21:03:44;-1.10;99.90
12043;DHT22;6082;49.306;12.862;2024-01-15T21:06:10;-1.00;99.90
12043;DHT22;6082;49.306;12.862;2024-01-15T21:08:36;-1.10;99.90
12043;DHT22;6082;49.306;12.862;2024-01-15T21:11:02;-1.10;99.90
12043;DHT22;6082;49.306;12.862;2024-01-15T21:13:29;-1.10;99.90
12043;DHT22;6082;49.306;12.862;2024-01-15T21:15:55;-1.10;99.90
12043;DHT22;6082;49.306;12.862;2024-01-15T21:18:21;-1.10;99.90
12043;DHT22;6082;49.306;12.862;2024-01-15T21:20:47;-1.10;99.90
12043;DHT22;6082;49.306;12.862;2024-01-15T21:23:13;-1.10;99.90
12043;DHT22;6082;49.306;12.862;2024-01-15T21:25:39;-1.20;99.90
12043;DHT22;6082;49.306;12.862;2024-01-15T21:28:04;-1.10;99.90
12043;DHT22;6082;49.306;12.862;2024-01-15T21:30:32;-1.10;99.90
12043;DHT22;6082;49.306;12.862;2024-01-15T21:33:02;-1.10;99.90
12043;DHT22;6082;49.306;12.862;2024-01-15T21:35:29;-1.10;99.90
12043;DHT22;6082;49.306;12.862;2024-01-15T21:37:55;-1.10;99.90
12043;DHT22;6082;49.306;12.862;2024-01-15T21:40:20;-1.10;99.90
12043;DHT22;6082;49.306;12.862;2024-01-15T21:42:46;-1.10;99.90
12043;DHT22;6082;49.306;12.862;2024-01-15T21:45:12;-1.10;99.90
12043;DHT22;6082;49.306;12.862;2024-01-15T21:47:38;-1.10;99.90
12043;DHT22;6082;49.306;12.862;2024-01-15T21:50:07;-1.10;99.90
12043;DHT22;6082;49.306;12.862;2024-01-15T21:52:36;-1.10;99.90
12043;DHT22;6082;49.306;12.862;2024-01-15T21:55:02;-1.10;99.90
12043;DHT22;6082;49.306;12.862;2024-01-15T21:57:28;-1.10;99.90
12043;DHT22;6082;49.306;12.862;2024-01-15T21:59:54;-1.10;99.90
12043;DHT22;6082;49.306;12.862;2024-01-15T22:02:20;-1.10;99.90
12043;DHT22;6082;49.306;12.862;2024-01-15T22:04:46;-1.10;99.90
12043;DHT22;6082;49.306;12.862;2024-01-15T22:07:12;-1.00;99.90
12043;DHT22;6082;49.306;12.862;2024-01-15T22:09:39;-1.00;99.90
12043;DHT22;6082;49.306;12.862;2024-01-15T22:12:06;-1.00;99.90
12043;DHT22;6082;49.306;12.862;2024-01-15T22:14:32;-1.00;99.90
12043;DHT22;6082;49.306;12.862;2024-01-15T22:16:57;-1.00;99.90
12043;DHT22;6082;49.306;12.862;2024-01-15T22:19:23;-1.00;99.90
12043;DHT22;6082;49.306;12.862;2024-01-15T22:21:49;-1.00;99.90
12043;DHT22;6082;49.306;12.862;2024-01-15T22:24:15;-1.00;99.90
12043;DHT22;6082;49.306;12.862;2024-01-15T22:26:41;-1.00;99.90
12043;DHT22;6082;49.306;12.862;2024-01-15T22:29:07;-1.00;99.90
12043;DHT22;6082;49.306;12.862;2024-01-15T22:31:34;-1.00;99.90
12043;DHT22;6082;49.306;12.862;2024-01-15T22:33:59;-1.00;99.90
12043;DHT22;6082;49.306;12.862;2024-01-15T22:36:25;-1.00;99.90
12043;DHT22;6082;49.306;12.862;2024-01-15T22:38:51;-1.00;99.90
12043;DHT22;6082;49.306;12.862;2024-01-15T22:41:17;-1.00;99.90
12043;DHT22;6082;49.306;12.862;2024-01-15T22:43:44;-1.00;99.90
12043;DHT22;6082;49.306;12.862;2024-01-15T22:46:09;-1.00;99.90
12043;DHT22;6082;49.306;12.862;2024-01-15T22:48:36;-1.00;99.90
12043;DHT22;6082;49.306;12.862;2024-01-15T22:51:02;-1.00;99.90
12043;DHT22;6082;49.306;12.862;2024-01-15T22:53:28;-1.00;99.90
12043;DHT22;6082;49.306;12.862;2024-01-15T22:55:55;-1.00;99.90
12043;DHT22;6082;49.306;12.862;2024-01-15T22:58:21;-1.10;99.90
12043;DHT22;6082;49.306;12.862;2024-01-15T23:00:48;-1.10;99.90
12043;DHT22;6082;49.306;12.862;2024-01-15T23:03:14;-1.10;99.90
12043;DHT22;6082;49.306;12.862;2024-01-15T23:05:40;-1.10;99.90
12043;DHT22;6082;49.306;12.862;2024-01-15T23:08:06;-1.10;99.90
12043;DHT22;6082;49.306;12.862;2024-01-15T23:10:32;-1.10;99.90
12043;DHT22;6082;49.306;12.862;2024-01-15T23:12:57;-1.10;99.90
12043;DHT22;6082;49.306;12.862;2024-01-15T23:15:24;-1.10;99.90
12043;DHT22;6082;49.306;12.862;2024-01-15T23:17:50;-1.10;99.90
12043;DHT22;6082;49.306;12.862;2024-01-15T23:20:17;-1.10;99.90
12043;DHT22;6082;49.306;12.862;2024-01-15T23:22:43;-1.10;99.90
12043;DHT22;6082;49.306;12.862;2024-01-15T23:25:09;-1.10;99.90
12043;DHT22;6082;49.306;12.862;2024-01-15T23:27:35;-1.10;99.90
12043;DHT22;6082;49.306;12.862;2024-01-15T23:30:02;-1.10;99.90
12043;DHT22;6082;49.306;12.862;2024-01-15T23:32:31;-1.10;99.90
12043;DHT22;6082;49.306;12.862;2024-01-15T23:34:57;-1.10;99.90
12043;DHT22;6082;49.306;12.862;2024-01-15T23:37:27;-1.10;99.90
12043;DHT22;6082;49.306;12.862;2024-01-15T23:39:53;-1.10;99.90
12043;DHT22;6082;49.306;12.862;2024-01-15T23:42:18;-1.10;99.90
12043;DHT22;6082;49.306;12.862;2024-01-15T23:44:44;-1.10;99.90
12043;DHT22;6082;49.306;12.862;2024-01-15T23:47:14;-1.10;99.90
12043;DHT22;6082;49.306;12.862;2024-01-15T23:49:40;-1.10;99.90
12043;DHT22;6082;49.306;12.862;2024-01-15T23:52:05;-1.20;99.90
12043;DHT22;6082;49.306;12.862;2024-01-15T23:54:31;-1.10;99.90
12043;DHT22;6082;49.306;12.862;2024-01-15T23:57:01;-1.10;99.90
12043;DHT22;6082;49.306;12.862;2024-01-15T23:59:26;-1.10;99.90
